This is the latest recevied weather packets stored in our database for station/object KD8ZLZ-13. If no packets are shown the sender has not sent any weather packets the latest 10 day(s).
| Time | Temp. | Humidity | Pressure | Rain* | Wind** | Luminosity | Snow |
|---|---|---|---|---|---|---|---|
| 1777843393 | 17.78° C | 36% | 1010.9 hPa | 0 mm | - | 375 W/m² | - |
| 1777842793 | 17.78° C | 37% | 1010.9 hPa | 0 mm | - | 550 W/m² | - |
| 1777842193 | 17.78° C | 38% | 1011.2 hPa | 0 mm | - | 501 W/m² | - |
| 1777841593 | 17.22° C | 38% | 1011.2 hPa | 0 mm | - | 214 W/m² | - |
| 1777840993 | 17.22° C | 38% | 1011.2 hPa | 0 mm | - | 411 W/m² | - |
| 1777840393 | 17.22° C | 37% | 1011.2 hPa | 0 mm | - | 309 W/m² | - |
| 1777839793 | 17.22° C | 37% | 1011.2 hPa | 0 mm | - | 322 W/m² | - |
| 1777839193 | 18.33° C | 37% | 1011.5 hPa | 0 mm | - | 623 W/m² | - |
| 1777838593 | 17.22° C | 36% | 1011.5 hPa | 0 mm | - | 432 W/m² | - |
| 1777837993 | 16.67° C | 37% | 1011.5 hPa | 0 mm | - | 290 W/m² | - |
| 1777837393 | 17.78° C | 36% | 1011.5 hPa | 0 mm | - | 681 W/m² | - |
| 1777836793 | 17.78° C | 35% | 1011.9 hPa | 0 mm | - | 869 W/m² | - |
| 1777836193 | 17.22° C | 36% | 1011.9 hPa | 0 mm | - | 659 W/m² | - |
| 1777835593 | 17.78° C | 35% | 1012.2 hPa | 0 mm | - | 931 W/m² | - |
| 1777834993 | 17.22° C | 35% | 1012.2 hPa | 0 mm | - | 655 W/m² | - |
| 1777834393 | 17.22° C | 36% | 1012.2 hPa | 0 mm | - | 917 W/m² | - |
| 1777833793 | 17.22° C | 36% | 1012.6 hPa | 0 mm | - | 845 W/m² | - |
| 1777833193 | 17.22° C | 36% | 1012.6 hPa | 0 mm | - | 715 W/m² | - |
| 1777832593 | 16.67° C | 36% | 1012.6 hPa | 0 mm | - | 737 W/m² | - |
| 1777831993 | 16.67° C | 34% | 1013.2 hPa | 0 mm | - | 481 W/m² | - |
| 1777831393 | 16.67° C | 36% | 1013.2 hPa | 0 mm | - | 816 W/m² | - |
| 1777830793 | 16.11° C | 38% | 1013.2 hPa | 0 mm | - | 496 W/m² | - |
| 1777830193 | 16.11° C | 38% | 1013.6 hPa | 0 mm | - | 603 W/m² | - |
| 1777829593 | 16.67° C | 37% | 1013.6 hPa | 0 mm | - | 985 W/m² | - |
| 1777828993 | 16.11° C | 38% | 1013.9 hPa | 0 mm | - | 934 W/m² | - |
* Rain latest hour (hover to see other rain measurements)
** Current wind speed in m/s (hover to see current wind gust speed)